sensor_id;sensor_type;location;lat;lon;timestamp;temperature;humidity
66586;SHT30;53444;45.822;16.092;2023-08-07T00:01:20;15.30;93.75
66586;SHT30;53444;45.822;16.092;2023-08-07T00:03:46;15.28;93.96
66586;SHT30;53444;45.822;16.092;2023-08-07T00:06:13;15.34;93.85
66586;SHT30;53444;45.822;16.092;2023-08-07T00:08:41;15.30;93.97
66586;SHT30;53444;45.822;16.092;2023-08-07T00:11:09;15.36;93.69
66586;SHT30;53444;45.822;16.092;2023-08-07T00:13:36;15.36;93.68
66586;SHT30;53444;45.822;16.092;2023-08-07T00:16:03;15.30;93.73
66586;SHT30;53444;45.822;16.092;2023-08-07T00:18:30;15.13;94.17
66586;SHT30;53444;45.822;16.092;2023-08-07T00:20:56;15.19;94.14
66586;SHT30;53444;45.822;16.092;2023-08-07T00:23:23;15.26;94.11
66586;SHT30;53444;45.822;16.092;2023-08-07T00:25:51;15.28;93.73
66586;SHT30;53444;45.822;16.092;2023-08-07T00:28:18;15.34;93.72
66586;SHT30;53444;45.822;16.092;2023-08-07T00:30:44;15.38;93.52
66586;SHT30;53444;45.822;16.092;2023-08-07T00:33:11;15.23;94.06
66586;SHT30;53444;45.822;16.092;2023-08-07T00:35:37;15.30;93.77
66586;SHT30;53444;45.822;16.092;2023-08-07T00:38:04;15.28;93.73
66586;SHT30;53444;45.822;16.092;2023-08-07T00:40:36;15.36;93.12
66586;SHT30;53444;45.822;16.092;2023-08-07T00:43:05;15.23;93.17
66586;SHT30;53444;45.822;16.092;2023-08-07T00:45:35;15.22;93.08
66586;SHT30;53444;45.822;16.092;2023-08-07T00:48:03;15.20;93.25
66586;SHT30;53444;45.822;16.092;2023-08-07T00:50:30;15.19;93.10
66586;SHT30;53444;45.822;16.092;2023-08-07T00:52:57;15.13;93.47
66586;SHT30;53444;45.822;16.092;2023-08-07T00:55:24;15.06;93.13
66586;SHT30;53444;45.822;16.092;2023-08-07T00:57:51;15.11;93.19
66586;SHT30;53444;45.822;16.092;2023-08-07T01:00:19;15.02;93.19
66586;SHT30;53444;45.822;16.092;2023-08-07T01:02:47;15.07;93.15
66586;SHT30;53444;45.822;16.092;2023-08-07T01:05:16;15.11;92.98
66586;SHT30;53444;45.822;16.092;2023-08-07T01:07:43;14.99;93.11
66586;SHT30;53444;45.822;16.092;2023-08-07T01:10:10;14.97;93.25
66586;SHT30;53444;45.822;16.092;2023-08-07T01:12:45;14.96;93.60
66586;SHT30;53444;45.822;16.092;2023-08-07T01:15:16;14.83;93.68
66586;SHT30;53444;45.822;16.092;2023-08-07T01:17:46;14.71;94.10
66586;SHT30;53444;45.822;16.092;2023-08-07T01:20:13;14.76;93.87
66586;SHT30;53444;45.822;16.092;2023-08-07T01:22:44;14.62;94.53
66586;SHT30;53444;45.822;16.092;2023-08-07T01:25:10;14.29;95.43
66586;SHT30;53444;45.822;16.092;2023-08-07T01:27:42;14.32;95.35
66586;SHT30;53444;45.822;16.092;2023-08-07T01:30:15;14.38;94.56
66586;SHT30;53444;45.822;16.092;2023-08-07T01:32:51;14.51;94.49
66586;SHT30;53444;45.822;16.092;2023-08-07T01:35:22;14.49;94.20
66586;SHT30;53444;45.822;16.092;2023-08-07T01:37:55;14.44;94.38
66586;SHT30;53444;45.822;16.092;2023-08-07T01:40:22;14.61;94.09
66586;SHT30;53444;45.822;16.092;2023-08-07T01:42:49;14.73;93.65
66586;SHT30;53444;45.822;16.092;2023-08-07T01:45:22;14.83;93.20
66586;SHT30;53444;45.822;16.092;2023-08-07T01:47:49;14.85;93.16
66586;SHT30;53444;45.822;16.092;2023-08-07T01:50:16;14.85;93.08
66586;SHT30;53444;45.822;16.092;2023-08-07T01:52:42;14.85;92.88
66586;SHT30;53444;45.822;16.092;2023-08-07T01:55:10;14.83;92.79
66586;SHT30;53444;45.822;16.092;2023-08-07T01:57:37;14.77;92.71
66586;SHT30;53444;45.822;16.092;2023-08-07T02:00:05;14.75;92.63
66586;SHT30;53444;45.822;16.092;2023-08-07T02:02:34;14.77;92.48
66586;SHT30;53444;45.822;16.092;2023-08-07T02:05:01;14.73;92.56
66586;SHT30;53444;45.822;16.092;2023-08-07T02:07:28;14.72;92.87
66586;SHT30;53444;45.822;16.092;2023-08-07T02:09:55;14.72;92.69
66586;SHT30;53444;45.822;16.092;2023-08-07T02:12:23;14.77;92.84
66586;SHT30;53444;45.822;16.092;2023-08-07T02:14:50;14.71;93.00
66586;SHT30;53444;45.822;16.092;2023-08-07T02:17:16;14.71;93.41
66586;SHT30;53444;45.822;16.092;2023-08-07T02:19:43;14.82;93.34
66586;SHT30;53444;45.822;16.092;2023-08-07T02:22:09;14.90;93.10
66586;SHT30;53444;45.822;16.092;2023-08-07T02:24:36;14.87;93.26
66586;SHT30;53444;45.822;16.092;2023-08-07T02:27:03;14.93;93.11
66586;SHT30;53444;45.822;16.092;2023-08-07T02:29:31;14.83;93.47
66586;SHT30;53444;45.822;16.092;2023-08-07T02:31:59;14.90;93.51
66586;SHT30;53444;45.822;16.092;2023-08-07T02:34:26;14.90;93.39
66586;SHT30;53444;45.822;16.092;2023-08-07T02:36:52;14.86;93.59
66586;SHT30;53444;45.822;16.092;2023-08-07T02:39:20;14.72;94.00
66586;SHT30;53444;45.822;16.092;2023-08-07T02:41:46;14.73;94.14
66586;SHT30;53444;45.822;16.092;2023-08-07T02:44:13;14.52;94.90
66586;SHT30;53444;45.822;16.092;2023-08-07T02:46:41;14.72;94.60
66586;SHT30;53444;45.822;16.092;2023-08-07T02:49:07;14.79;94.26
66586;SHT30;53444;45.822;16.092;2023-08-07T02:51:34;14.83;94.09
66586;SHT30;53444;45.822;16.092;2023-08-07T02:54:00;14.76;94.23
66586;SHT30;53444;45.822;16.092;2023-08-07T02:56:27;14.86;94.34
66586;SHT30;53444;45.822;16.092;2023-08-07T02:58:54;14.89;93.84
66586;SHT30;53444;45.822;16.092;2023-08-07T03:03:59;15.06;93.55
66586;SHT30;53444;45.822;16.092;2023-08-07T03:06:26;14.97;94.13
66586;SHT30;53444;45.822;16.092;2023-08-07T03:08:53;15.00;94.11
66586;SHT30;53444;45.822;16.092;2023-08-07T03:11:19;15.00;94.49
66586;SHT30;53444;45.822;16.092;2023-08-07T03:13:46;15.06;94.42
66586;SHT30;53444;45.822;16.092;2023-08-07T03:16:14;15.06;94.33
66586;SHT30;53444;45.822;16.092;2023-08-07T03:18:41;15.04;94.15
66586;SHT30;53444;45.822;16.092;2023-08-07T03:21:09;15.06;94.09
66586;SHT30;53444;45.822;16.092;2023-08-07T03:23:35;14.99;94.31
66586;SHT30;53444;45.822;16.092;2023-08-07T03:26:03;14.82;94.58
66586;SHT30;53444;45.822;16.092;2023-08-07T03:28:30;14.69;95.28
66586;SHT30;53444;45.822;16.092;2023-08-07T03:30:57;14.80;95.14
66586;SHT30;53444;45.822;16.092;2023-08-07T03:33:23;14.75;95.53
66586;SHT30;53444;45.822;16.092;2023-08-07T03:35:50;14.90;95.26
66586;SHT30;53444;45.822;16.092;2023-08-07T03:38:18;14.99;94.54
66586;SHT30;53444;45.822;16.092;2023-08-07T03:40:45;14.92;93.38
66586;SHT30;53444;45.822;16.092;2023-08-07T03:43:12;15.03;92.97
66586;SHT30;53444;45.822;16.092;2023-08-07T03:45:39;15.03;93.46
66586;SHT30;53444;45.822;16.092;2023-08-07T03:48:06;15.10;93.44
66586;SHT30;53444;45.822;16.092;2023-08-07T03:50:32;15.02;93.74
66586;SHT30;53444;45.822;16.092;2023-08-07T03:53:02;15.11;93.40
66586;SHT30;53444;45.822;16.092;2023-08-07T03:55:30;14.96;93.83
66586;SHT30;53444;45.822;16.092;2023-08-07T03:57:57;14.87;94.24
66586;SHT30;53444;45.822;16.092;2023-08-07T04:00:23;14.97;94.02
66586;SHT30;53444;45.822;16.092;2023-08-07T04:02:50;14.85;95.52
66586;SHT30;53444;45.822;16.092;2023-08-07T04:05:16;14.99;95.10
66586;SHT30;53444;45.822;16.092;2023-08-07T04:07:43;14.95;94.95
66586;SHT30;53444;45.822;16.092;2023-08-07T04:10:10;14.93;95.08
66586;SHT30;53444;45.822;16.092;2023-08-07T04:12:38;15.00;95.45
66586;SHT30;53444;45.822;16.092;2023-08-07T04:15:05;15.04;95.07
66586;SHT30;53444;45.822;16.092;2023-08-07T04:17:34;15.07;94.99
66586;SHT30;53444;45.822;16.092;2023-08-07T04:20:00;14.89;95.57
66586;SHT30;53444;45.822;16.092;2023-08-07T04:22:28;14.83;95.26
66586;SHT30;53444;45.822;16.092;2023-08-07T04:24:55;15.00;94.44
66586;SHT30;53444;45.822;16.092;2023-08-07T04:27:22;15.13;94.03
66586;SHT30;53444;45.822;16.092;2023-08-07T04:29:49;14.86;95.56
66586;SHT30;53444;45.822;16.092;2023-08-07T04:32:16;14.63;96.41
66586;SHT30;53444;45.822;16.092;2023-08-07T04:34:43;14.55;97.25
66586;SHT30;53444;45.822;16.092;2023-08-07T04:37:09;14.56;96.91
66586;SHT30;53444;45.822;16.092;2023-08-07T04:39:36;14.58;97.10
66586;SHT30;53444;45.822;16.092;2023-08-07T04:42:03;14.66;96.90
66586;SHT30;53444;45.822;16.092;2023-08-07T04:44:30;14.79;96.74
66586;SHT30;53444;45.822;16.092;2023-08-07T04:46:58;14.82;96.56
66586;SHT30;53444;45.822;16.092;2023-08-07T04:49:24;14.87;96.57
66586;SHT30;53444;45.822;16.092;2023-08-07T04:51:51;14.90;96.34
66586;SHT30;53444;45.822;16.092;2023-08-07T04:54:18;15.08;95.55
66586;SHT30;53444;45.822;16.092;2023-08-07T04:56:44;15.22;95.37
66586;SHT30;53444;45.822;16.092;2023-08-07T04:59:11;15.31;95.06
66586;SHT30;53444;45.822;16.092;2023-08-07T05:01:40;15.40;94.65
66586;SHT30;53444;45.822;16.092;2023-08-07T05:04:08;15.51;94.38
66586;SHT30;53444;45.822;16.092;2023-08-07T05:06:35;15.50;94.16
66586;SHT30;53444;45.822;16.092;2023-08-07T05:09:02;15.50;94.38
66586;SHT30;53444;45.822;16.092;2023-08-07T05:11:29;15.48;93.95
66586;SHT30;53444;45.822;16.092;2023-08-07T05:13:56;15.53;94.10
66586;SHT30;53444;45.822;16.092;2023-08-07T05:16:22;15.69;94.02
66586;SHT30;53444;45.822;16.092;2023-08-07T05:18:49;15.50;95.46
66586;SHT30;53444;45.822;16.092;2023-08-07T05:21:19;15.40;96.08
66586;SHT30;53444;45.822;16.092;2023-08-07T05:23:47;15.40;95.86
66586;SHT30;53444;45.822;16.092;2023-08-07T05:26:18;15.44;95.91
66586;SHT30;53444;45.822;16.092;2023-08-07T05:28:45;15.20;96.93
66586;SHT30;53444;45.822;16.092;2023-08-07T05:31:12;15.38;96.47
66586;SHT30;53444;45.822;16.092;2023-08-07T05:33:38;15.33;96.49
66586;SHT30;53444;45.822;16.092;2023-08-07T05:36:06;15.34;96.58
66586;SHT30;53444;45.822;16.092;2023-08-07T05:38:34;15.47;96.45
66586;SHT30;53444;45.822;16.092;2023-08-07T05:41:00;15.65;95.72
66586;SHT30;53444;45.822;16.092;2023-08-07T05:43:27;15.69;95.99
66586;SHT30;53444;45.822;16.092;2023-08-07T05:45:57;15.81;95.75
66586;SHT30;53444;45.822;16.092;2023-08-07T05:48:28;15.89;95.27
66586;SHT30;53444;45.822;16.092;2023-08-07T05:50:57;15.98;94.14
66586;SHT30;53444;45.822;16.092;2023-08-07T05:53:28;15.98;93.61
66586;SHT30;53444;45.822;16.092;2023-08-07T05:55:56;15.64;95.52
66586;SHT30;53444;45.822;16.092;2023-08-07T05:58:25;15.71;95.24
66586;SHT30;53444;45.822;16.092;2023-08-07T06:00:52;15.92;94.92
66586;SHT30;53444;45.822;16.092;2023-08-07T06:03:25;16.01;94.54
66586;SHT30;53444;45.822;16.092;2023-08-07T06:05:59;15.95;94.87
66586;SHT30;53444;45.822;16.092;2023-08-07T06:08:26;15.94;95.21
66586;SHT30;53444;45.822;16.092;2023-08-07T06:10:52;15.95;95.21
66586;SHT30;53444;45.822;16.092;2023-08-07T06:13:20;16.20;94.99
66586;SHT30;53444;45.822;16.092;2023-08-07T06:15:49;16.28;94.38
66586;SHT30;53444;45.822;16.092;2023-08-07T06:18:16;16.15;92.80
66586;SHT30;53444;45.822;16.092;2023-08-07T06:20:45;16.09;92.71
66586;SHT30;53444;45.822;16.092;2023-08-07T06:23:19;15.88;93.33
66586;SHT30;53444;45.822;16.092;2023-08-07T06:25:46;15.91;92.63
66586;SHT30;53444;45.822;16.092;2023-08-07T06:28:12;16.05;92.27
66586;SHT30;53444;45.822;16.092;2023-08-07T06:30:40;16.20;92.47
66586;SHT30;53444;45.822;16.092;2023-08-07T06:33:09;16.05;92.83
66586;SHT30;53444;45.822;16.092;2023-08-07T06:35:54;16.18;93.48
66586;SHT30;53444;45.822;16.092;2023-08-07T06:38:21;16.20;92.95
66586;SHT30;53444;45.822;16.092;2023-08-07T06:40:47;16.20;92.96
66586;SHT30;53444;45.822;16.092;2023-08-07T06:43:14;16.39;91.80
66586;SHT30;53444;45.822;16.092;2023-08-07T06:45:42;16.25;92.79
66586;SHT30;53444;45.822;16.092;2023-08-07T06:48:09;16.20;91.69
66586;SHT30;53444;45.822;16.092;2023-08-07T06:50:38;16.52;92.09
66586;SHT30;53444;45.822;16.092;2023-08-07T06:53:05;16.66;92.38
66586;SHT30;53444;45.822;16.092;2023-08-07T06:55:31;16.76;92.09
66586;SHT30;53444;45.822;16.092;2023-08-07T06:57:58;16.84;91.66
66586;SHT30;53444;45.822;16.092;2023-08-07T07:00:25;16.73;91.12
66586;SHT30;53444;45.822;16.092;2023-08-07T07:02:53;16.74;91.81
66586;SHT30;53444;45.822;16.092;2023-08-07T07:05:19;17.01;90.20
66586;SHT30;53444;45.822;16.092;2023-08-07T07:07:49;17.11;89.74
66586;SHT30;53444;45.822;16.092;2023-08-07T07:10:16;17.28;89.94
66586;SHT30;53444;45.822;16.092;2023-08-07T07:12:42;17.38;88.79
66586;SHT30;53444;45.822;16.092;2023-08-07T07:15:17;17.46;87.68
66586;SHT30;53444;45.822;16.092;2023-08-07T07:17:43;17.49;87.42
66586;SHT30;53444;45.822;16.092;2023-08-07T07:20:14;17.63;87.03
66586;SHT30;53444;45.822;16.092;2023-08-07T07:22:41;17.70;84.75
66586;SHT30;53444;45.822;16.092;2023-08-07T07:25:08;17.69;83.81
66586;SHT30;53444;45.822;16.092;2023-08-07T07:27:38;17.61;83.51
66586;SHT30;53444;45.822;16.092;2023-08-07T07:30:08;17.80;83.38
66586;SHT30;53444;45.822;16.092;2023-08-07T07:32:35;17.99;83.09
66586;SHT30;53444;45.822;16.092;2023-08-07T07:35:01;18.11;80.97
66586;SHT30;53444;45.822;16.092;2023-08-07T07:37:31;18.14;81.16
66586;SHT30;53444;45.822;16.092;2023-08-07T07:39:58;18.17;80.47
66586;SHT30;53444;45.822;16.092;2023-08-07T07:42:25;18.37;80.30
66586;SHT30;53444;45.822;16.092;2023-08-07T07:44:51;18.64;80.64
66586;SHT30;53444;45.822;16.092;2023-08-07T07:47:18;18.78;79.35
66586;SHT30;53444;45.822;16.092;2023-08-07T07:49:46;18.78;78.09
66586;SHT30;53444;45.822;16.092;2023-08-07T07:52:13;18.99;78.40
66586;SHT30;53444;45.822;16.092;2023-08-07T07:54:41;19.09;75.85
66586;SHT30;53444;45.822;16.092;2023-08-07T07:57:07;19.23;77.27
66586;SHT30;53444;45.822;16.092;2023-08-07T07:59:34;19.23;75.37
66586;SHT30;53444;45.822;16.092;2023-08-07T08:02:00;19.30;75.30
66586;SHT30;53444;45.822;16.092;2023-08-07T08:04:27;19.52;76.32
66586;SHT30;53444;45.822;16.092;2023-08-07T08:06:54;19.76;74.25
66586;SHT30;53444;45.822;16.092;2023-08-07T08:09:21;19.93;71.12
66586;SHT30;53444;45.822;16.092;2023-08-07T08:11:48;20.03;70.58
66586;SHT30;53444;45.822;16.092;2023-08-07T08:14:15;20.17;70.79
66586;SHT30;53444;45.822;16.092;2023-08-07T08:16:42;20.32;70.04
66586;SHT30;53444;45.822;16.092;2023-08-07T08:19:08;20.45;64.84
66586;SHT30;53444;45.822;16.092;2023-08-07T08:21:35;20.59;65.92
66586;SHT30;53444;45.822;16.092;2023-08-07T08:24:01;20.65;62.41
66586;SHT30;53444;45.822;16.092;2023-08-07T08:26:28;20.69;65.12
66586;SHT30;53444;45.822;16.092;2023-08-07T08:28:56;20.92;64.87
66586;SHT30;53444;45.822;16.092;2023-08-07T08:31:22;21.07;64.95
66586;SHT30;53444;45.822;16.092;2023-08-07T08:33:49;21.02;63.82
66586;SHT30;53444;45.822;16.092;2023-08-07T08:36:16;20.96;60.65
66586;SHT30;53444;45.822;16.092;2023-08-07T08:38:43;21.14;61.70
66586;SHT30;53444;45.822;16.092;2023-08-07T08:41:10;21.33;61.27
66586;SHT30;53444;45.822;16.092;2023-08-07T08:43:38;21.06;60.57
66586;SHT30;53444;45.822;16.092;2023-08-07T08:46:08;21.38;61.52
66586;SHT30;53444;45.822;16.092;2023-08-07T08:48:35;21.71;61.05
66586;SHT30;53444;45.822;16.092;2023-08-07T08:51:04;21.91;62.33
66586;SHT30;53444;45.822;16.092;2023-08-07T08:53:32;21.98;61.45
66586;SHT30;53444;45.822;16.092;2023-08-07T08:55:59;21.73;58.97
66586;SHT30;53444;45.822;16.092;2023-08-07T08:58:27;21.61;58.73
66586;SHT30;53444;45.822;16.092;2023-08-07T09:00:54;21.68;58.97
66586;SHT30;53444;45.822;16.092;2023-08-07T09:03:23;22.10;59.57
66586;SHT30;53444;45.822;16.092;2023-08-07T09:05:52;22.46;62.16
66586;SHT30;53444;45.822;16.092;2023-08-07T09:08:19;22.55;58.21
66586;SHT30;53444;45.822;16.092;2023-08-07T09:10:47;22.70;57.17
66586;SHT30;53444;45.822;16.092;2023-08-07T09:13:14;22.87;57.31
66586;SHT30;53444;45.822;16.092;2023-08-07T09:15:44;23.21;60.51
66586;SHT30;53444;45.822;16.092;2023-08-07T09:18:16;23.44;58.40
66586;SHT30;53444;45.822;16.092;2023-08-07T09:20:44;23.88;59.65
66586;SHT30;53444;45.822;16.092;2023-08-07T09:23:11;23.62;57.40
66586;SHT30;53444;45.822;16.092;2023-08-07T09:25:38;23.04;58.05
66586;SHT30;53444;45.822;16.092;2023-08-07T09:28:05;22.61;58.67
66586;SHT30;53444;45.822;16.092;2023-08-07T09:30:33;23.03;61.03
66586;SHT30;53444;45.822;16.092;2023-08-07T09:33:00;23.30;57.41
66586;SHT30;53444;45.822;16.092;2023-08-07T09:35:29;23.25;57.00
66586;SHT30;53444;45.822;16.092;2023-08-07T09:37:58;23.03;54.29
66586;SHT30;53444;45.822;16.092;2023-08-07T09:40:25;22.91;54.09
66586;SHT30;53444;45.822;16.092;2023-08-07T09:42:52;22.96;55.71
66586;SHT30;53444;45.822;16.092;2023-08-07T09:45:20;22.96;55.47
66586;SHT30;53444;45.822;16.092;2023-08-07T09:47:56;23.54;57.12
66586;SHT30;53444;45.822;16.092;2023-08-07T09:50:23;23.92;55.50
66586;SHT30;53444;45.822;16.092;2023-08-07T09:52:50;23.92;57.12
66586;SHT30;53444;45.822;16.092;2023-08-07T09:55:18;24.09;56.27
66586;SHT30;53444;45.822;16.092;2023-08-07T09:57:45;24.49;56.68
66586;SHT30;53444;45.822;16.092;2023-08-07T10:00:13;24.67;57.83
66586;SHT30;53444;45.822;16.092;2023-08-07T10:02:40;24.64;55.93
66586;SHT30;53444;45.822;16.092;2023-08-07T10:05:09;24.33;54.28
66586;SHT30;53444;45.822;16.092;2023-08-07T10:07:37;24.80;55.81
66586;SHT30;53444;45.822;16.092;2023-08-07T10:10:04;25.42;54.59
66586;SHT30;53444;45.822;16.092;2023-08-07T10:12:33;25.49;53.75
66586;SHT30;53444;45.822;16.092;2023-08-07T10:15:00;23.28;56.39
66586;SHT30;53444;45.822;16.092;2023-08-07T10:17:27;23.62;57.85
66586;SHT30;53444;45.822;16.092;2023-08-07T10:19:54;23.68;55.47
66586;SHT30;53444;45.822;16.092;2023-08-07T10:22:23;23.55;55.65
66586;SHT30;53444;45.822;16.092;2023-08-07T10:24:53;24.03;56.09
66586;SHT30;53444;45.822;16.092;2023-08-07T10:27:21;23.83;53.21
66586;SHT30;53444;45.822;16.092;2023-08-07T10:29:51;24.44;53.85
66586;SHT30;53444;45.822;16.092;2023-08-07T10:32:20;24.08;53.74
66586;SHT30;53444;45.822;16.092;2023-08-07T10:34:49;24.53;54.25
66586;SHT30;53444;45.822;16.092;2023-08-07T10:37:40;24.74;53.89
66586;SHT30;53444;45.822;16.092;2023-08-07T10:40:09;25.66;54.07
66586;SHT30;53444;45.822;16.092;2023-08-07T10:42:51;25.25;51.60
66586;SHT30;53444;45.822;16.092;2023-08-07T10:45:20;25.84;51.79
66586;SHT30;53444;45.822;16.092;2023-08-07T10:47:57;26.28;51.43
66586;SHT30;53444;45.822;16.092;2023-08-07T10:50:27;25.12;50.38
66586;SHT30;53444;45.822;16.092;2023-08-07T10:52:54;25.92;51.48
66586;SHT30;53444;45.822;16.092;2023-08-07T10:55:21;26.48;48.24
66586;SHT30;53444;45.822;16.092;2023-08-07T10:57:49;26.59;47.23
66586;SHT30;53444;45.822;16.092;2023-08-07T11:00:16;26.58;47.28
66586;SHT30;53444;45.822;16.092;2023-08-07T11:02:48;24.43;48.25
66586;SHT30;53444;45.822;16.092;2023-08-07T11:05:15;25.82;46.90
66586;SHT30;53444;45.822;16.092;2023-08-07T11:07:44;26.98;45.73
66586;SHT30;53444;45.822;16.092;2023-08-07T11:10:13;27.56;45.84
66586;SHT30;53444;45.822;16.092;2023-08-07T11:12:40;25.89;47.43
66586;SHT30;53444;45.822;16.092;2023-08-07T11:15:11;25.28;47.56
66586;SHT30;53444;45.822;16.092;2023-08-07T11:17:38;26.51;47.36
66586;SHT30;53444;45.822;16.092;2023-08-07T11:20:09;26.30;53.58
66586;SHT30;53444;45.822;16.092;2023-08-07T11:22:38;25.55;56.67
66586;SHT30;53444;45.822;16.092;2023-08-07T11:25:06;24.87;58.98
66586;SHT30;53444;45.822;16.092;2023-08-07T11:27:36;24.63;60.13
66586;SHT30;53444;45.822;16.092;2023-08-07T11:30:04;24.00;61.78
66586;SHT30;53444;45.822;16.092;2023-08-07T11:32:31;23.76;62.81
66586;SHT30;53444;45.822;16.092;2023-08-07T11:34:57;23.38;63.02
66586;SHT30;53444;45.822;16.092;2023-08-07T11:37:25;23.22;63.45
66586;SHT30;53444;45.822;16.092;2023-08-07T11:39:52;23.25;62.91
66586;SHT30;53444;45.822;16.092;2023-08-07T11:42:21;23.38;62.87
66586;SHT30;53444;45.822;16.092;2023-08-07T11:44:48;23.28;63.09
66586;SHT30;53444;45.822;16.092;2023-08-07T11:47:15;23.47;62.78
66586;SHT30;53444;45.822;16.092;2023-08-07T11:49:42;24.54;60.65
66586;SHT30;53444;45.822;16.092;2023-08-07T11:52:09;24.80;58.88
66586;SHT30;53444;45.822;16.092;2023-08-07T11:54:37;25.86;56.65
66586;SHT30;53444;45.822;16.092;2023-08-07T11:57:15;26.33;55.48
66586;SHT30;53444;45.822;16.092;2023-08-07T11:59:41;25.80;58.04
66586;SHT30;53444;45.822;16.092;2023-08-07T12:02:09;25.12;58.96
66586;SHT30;53444;45.822;16.092;2023-08-07T12:04:36;25.55;57.04
66586;SHT30;53444;45.822;16.092;2023-08-07T12:07:03;25.92;57.28
66586;SHT30;53444;45.822;16.092;2023-08-07T12:09:30;24.77;58.52
66586;SHT30;53444;45.822;16.092;2023-08-07T12:11:58;24.14;55.02
66586;SHT30;53444;45.822;16.092;2023-08-07T12:14:28;24.10;55.28
66586;SHT30;53444;45.822;16.092;2023-08-07T12:16:55;24.12;55.90
66586;SHT30;53444;45.822;16.092;2023-08-07T12:19:22;25.41;53.31
66586;SHT30;53444;45.822;16.092;2023-08-07T12:21:48;26.12;52.34
66586;SHT30;53444;45.822;16.092;2023-08-07T12:24:15;26.89;50.55
66586;SHT30;53444;45.822;16.092;2023-08-07T12:26:41;26.89;51.85
66586;SHT30;53444;45.822;16.092;2023-08-07T12:29:09;26.17;50.46
66586;SHT30;53444;45.822;16.092;2023-08-07T12:31:36;25.42;51.76
66586;SHT30;53444;45.822;16.092;2023-08-07T12:34:03;25.18;52.47
66586;SHT30;53444;45.822;16.092;2023-08-07T12:36:29;25.93;52.99
66586;SHT30;53444;45.822;16.092;2023-08-07T12:38:56;26.55;51.51
66586;SHT30;53444;45.822;16.092;2023-08-07T12:41:23;27.07;51.19
66586;SHT30;53444;45.822;16.092;2023-08-07T12:43:49;27.30;50.01
66586;SHT30;53444;45.822;16.092;2023-08-07T12:46:18;27.98;48.30
66586;SHT30;53444;45.822;16.092;2023-08-07T12:48:44;26.96;49.69
66586;SHT30;53444;45.822;16.092;2023-08-07T12:51:11;26.07;50.86
66586;SHT30;53444;45.822;16.092;2023-08-07T12:53:38;25.10;51.54
66586;SHT30;53444;45.822;16.092;2023-08-07T12:56:04;25.08;53.12
66586;SHT30;53444;45.822;16.092;2023-08-07T12:58:31;24.80;53.45
66586;SHT30;53444;45.822;16.092;2023-08-07T13:00:58;24.74;53.05
66586;SHT30;53444;45.822;16.092;2023-08-07T13:03:25;24.53;53.54
66586;SHT30;53444;45.822;16.092;2023-08-07T13:05:52;24.39;54.68
66586;SHT30;53444;45.822;16.092;2023-08-07T13:08:19;24.06;53.90
66586;SHT30;53444;45.822;16.092;2023-08-07T13:10:45;23.99;54.80
66586;SHT30;53444;45.822;16.092;2023-08-07T13:13:12;23.83;54.92
66586;SHT30;53444;45.822;16.092;2023-08-07T13:15:38;23.65;55.35
66586;SHT30;53444;45.822;16.092;2023-08-07T13:18:05;23.63;55.88
66586;SHT30;53444;45.822;16.092;2023-08-07T13:20:33;23.41;56.80
66586;SHT30;53444;45.822;16.092;2023-08-07T13:22:59;23.48;57.68
66586;SHT30;53444;45.822;16.092;2023-08-07T13:25:27;23.34;57.85
66586;SHT30;53444;45.822;16.092;2023-08-07T13:27:53;23.31;58.03
66586;SHT30;53444;45.822;16.092;2023-08-07T13:30:24;23.47;57.69
66586;SHT30;53444;45.822;16.092;2023-08-07T13:32:54;23.32;57.00
66586;SHT30;53444;45.822;16.092;2023-08-07T13:35:20;23.07;56.10
66586;SHT30;53444;45.822;16.092;2023-08-07T13:37:48;23.12;56.74
66586;SHT30;53444;45.822;16.092;2023-08-07T13:40:17;23.01;57.44
66586;SHT30;53444;45.822;16.092;2023-08-07T13:42:44;23.08;57.20
66586;SHT30;53444;45.822;16.092;2023-08-07T13:45:10;23.14;57.45
66586;SHT30;53444;45.822;16.092;2023-08-07T13:47:36;23.15;57.85
66586;SHT30;53444;45.822;16.092;2023-08-07T13:50:04;23.18;57.71
66586;SHT30;53444;45.822;16.092;2023-08-07T13:52:40;23.14;57.98
66586;SHT30;53444;45.822;16.092;2023-08-07T13:55:09;23.10;57.60
66586;SHT30;53444;45.822;16.092;2023-08-07T13:57:35;23.15;58.76
66586;SHT30;53444;45.822;16.092;2023-08-07T14:00:03;23.18;58.26
66586;SHT30;53444;45.822;16.092;2023-08-07T14:02:30;23.18;59.31
66586;SHT30;53444;45.822;16.092;2023-08-07T14:04:57;23.22;59.23
66586;SHT30;53444;45.822;16.092;2023-08-07T14:07:23;23.18;58.96
66586;SHT30;53444;45.822;16.092;2023-08-07T14:09:50;23.14;59.51
66586;SHT30;53444;45.822;16.092;2023-08-07T14:12:18;23.11;59.09
66586;SHT30;53444;45.822;16.092;2023-08-07T14:14:44;23.03;60.30
66586;SHT30;53444;45.822;16.092;2023-08-07T14:17:11;23.07;60.18
66586;SHT30;53444;45.822;16.092;2023-08-07T14:19:37;23.15;60.04
66586;SHT30;53444;45.822;16.092;2023-08-07T14:22:04;23.27;59.07
66586;SHT30;53444;45.822;16.092;2023-08-07T14:24:31;23.08;59.77
66586;SHT30;53444;45.822;16.092;2023-08-07T14:26:58;23.27;60.57
66586;SHT30;53444;45.822;16.092;2023-08-07T14:29:26;23.34;60.07
66586;SHT30;53444;45.822;16.092;2023-08-07T14:31:53;23.38;59.51
66586;SHT30;53444;45.822;16.092;2023-08-07T14:34:19;23.20;59.21
66586;SHT30;53444;45.822;16.092;2023-08-07T14:36:46;23.37;58.01
66586;SHT30;53444;45.822;16.092;2023-08-07T14:39:12;23.52;57.76
66586;SHT30;53444;45.822;16.092;2023-08-07T14:41:39;23.54;58.48
66586;SHT30;53444;45.822;16.092;2023-08-07T14:44:06;23.40;60.26
66586;SHT30;53444;45.822;16.092;2023-08-07T14:46:34;22.63;65.55
66586;SHT30;53444;45.822;16.092;2023-08-07T14:49:00;22.15;67.01
66586;SHT30;53444;45.822;16.092;2023-08-07T14:51:27;22.19;67.45
66586;SHT30;53444;45.822;16.092;2023-08-07T14:53:53;22.18;66.64
66586;SHT30;53444;45.822;16.092;2023-08-07T14:56:20;22.16;66.17
66586;SHT30;53444;45.822;16.092;2023-08-07T14:58:46;22.29;66.07
66586;SHT30;53444;45.822;16.092;2023-08-07T15:01:13;22.23;67.88
66586;SHT30;53444;45.822;16.092;2023-08-07T15:03:42;22.22;67.58
66586;SHT30;53444;45.822;16.092;2023-08-07T15:06:08;22.10;65.21
66586;SHT30;53444;45.822;16.092;2023-08-07T15:08:35;21.55;66.93
66586;SHT30;53444;45.822;16.092;2023-08-07T15:11:02;21.95;66.59
66586;SHT30;53444;45.822;16.092;2023-08-07T15:13:28;22.13;66.80
66586;SHT30;53444;45.822;16.092;2023-08-07T15:15:55;22.16;67.34
66586;SHT30;53444;45.822;16.092;2023-08-07T15:18:21;22.08;68.13
66586;SHT30;53444;45.822;16.092;2023-08-07T15:20:50;22.02;68.42